sensor_id;sensor_type;location;lat;lon;timestamp;P1;durP1;ratioP1;P2;durP2;ratioP2
16286;SDS011;8251;53.568;10.018;2023-07-24T00:00:50;3.90;;;2.70;;
16286;SDS011;8251;53.568;10.018;2023-07-24T00:03:17;2.33;;;2.13;;
16286;SDS011;8251;53.568;10.018;2023-07-24T00:05:43;3.30;;;2.57;;
16286;SDS011;8251;53.568;10.018;2023-07-24T00:08:10;2.73;;;2.40;;
16286;SDS011;8251;53.568;10.018;2023-07-24T00:10:38;3.13;;;2.60;;
16286;SDS011;8251;53.568;10.018;2023-07-24T00:13:05;2.80;;;2.20;;
16286;SDS011;8251;53.568;10.018;2023-07-24T00:15:32;2.67;;;2.43;;
16286;SDS011;8251;53.568;10.018;2023-07-24T00:21:21;3.93;;;2.80;;
16286;SDS011;8251;53.568;10.018;2023-07-24T00:23:49;3.67;;;2.60;;
16286;SDS011;8251;53.568;10.018;2023-07-24T00:26:17;4.53;;;2.40;;
16286;SDS011;8251;53.568;10.018;2023-07-24T00:28:44;5.83;;;2.07;;
16286;SDS011;8251;53.568;10.018;2023-07-24T00:31:10;6.30;;;2.60;;
16286;SDS011;8251;53.568;10.018;2023-07-24T00:33:37;2.70;;;2.40;;
16286;SDS011;8251;53.568;10.018;2023-07-24T00:36:04;4.53;;;2.17;;
16286;SDS011;8251;53.568;10.018;2023-07-24T00:38:31;3.20;;;2.70;;
16286;SDS011;8251;53.568;10.018;2023-07-24T00:40:57;2.90;;;2.60;;
16286;SDS011;8251;53.568;10.018;2023-07-24T00:43:26;3.00;;;2.60;;
16286;SDS011;8251;53.568;10.018;2023-07-24T00:45:52;2.67;;;2.40;;
16286;SDS011;8251;53.568;10.018;2023-07-24T00:48:22;2.80;;;2.20;;
16286;SDS011;8251;53.568;10.018;2023-07-24T00:50:49;2.60;;;2.40;;
16286;SDS011;8251;53.568;10.018;2023-07-24T00:53:16;7.80;;;2.97;;
16286;SDS011;8251;53.568;10.018;2023-07-24T00:55:45;2.37;;;2.17;;
16286;SDS011;8251;53.568;10.018;2023-07-24T00:58:12;2.60;;;2.40;;
16286;SDS011;8251;53.568;10.018;2023-07-24T01:00:43;5.50;;;3.00;;
16286;SDS011;8251;53.568;10.018;2023-07-24T01:03:10;3.60;;;2.77;;
16286;SDS011;8251;53.568;10.018;2023-07-24T01:05:38;2.70;;;2.50;;
16286;SDS011;8251;53.568;10.018;2023-07-24T01:08:06;6.93;;;2.93;;
16286;SDS011;8251;53.568;10.018;2023-07-24T01:10:33;3.03;;;2.73;;
16286;SDS011;8251;53.568;10.018;2023-07-24T01:13:01;7.00;;;2.70;;
16286;SDS011;8251;53.568;10.018;2023-07-24T01:15:34;2.77;;;2.47;;
16286;SDS011;8251;53.568;10.018;2023-07-24T01:18:09;8.97;;;3.27;;
16286;SDS011;8251;53.568;10.018;2023-07-24T01:20:37;3.80;;;2.40;;
16286;SDS011;8251;53.568;10.018;2023-07-24T01:23:13;6.80;;;3.70;;
16286;SDS011;8251;53.568;10.018;2023-07-24T01:25:55;3.77;;;2.47;;
16286;SDS011;8251;53.568;10.018;2023-07-24T01:28:23;3.23;;;2.30;;
16286;SDS011;8251;53.568;10.018;2023-07-24T01:30:49;2.70;;;2.50;;
16286;SDS011;8251;53.568;10.018;2023-07-24T01:33:16;3.20;;;2.53;;
16286;SDS011;8251;53.568;10.018;2023-07-24T01:35:43;5.90;;;2.77;;
16286;SDS011;8251;53.568;10.018;2023-07-24T01:38:10;3.57;;;2.37;;
16286;SDS011;8251;53.568;10.018;2023-07-24T01:40:39;3.13;;;2.83;;
16286;SDS011;8251;53.568;10.018;2023-07-24T01:43:08;5.23;;;2.97;;
16286;SDS011;8251;53.568;10.018;2023-07-24T01:45:35;4.83;;;2.80;;
16286;SDS011;8251;53.568;10.018;2023-07-24T01:48:03;3.47;;;2.70;;
16286;SDS011;8251;53.568;10.018;2023-07-24T01:50:30;5.60;;;2.93;;
16286;SDS011;8251;53.568;10.018;2023-07-24T01:52:57;2.67;;;2.43;;
16286;SDS011;8251;53.568;10.018;2023-07-24T01:55:24;3.70;;;2.63;;
16286;SDS011;8251;53.568;10.018;2023-07-24T01:57:50;4.37;;;2.67;;
16286;SDS011;8251;53.568;10.018;2023-07-24T02:00:19;3.90;;;2.50;;
16286;SDS011;8251;53.568;10.018;2023-07-24T02:02:46;3.30;;;2.87;;
16286;SDS011;8251;53.568;10.018;2023-07-24T02:05:12;3.07;;;2.53;;
16286;SDS011;8251;53.568;10.018;2023-07-24T02:07:39;7.40;;;3.13;;
16286;SDS011;8251;53.568;10.018;2023-07-24T02:10:07;4.63;;;2.83;;
16286;SDS011;8251;53.568;10.018;2023-07-24T02:12:34;4.47;;;3.00;;
16286;SDS011;8251;53.568;10.018;2023-07-24T02:15:01;3.50;;;2.87;;
16286;SDS011;8251;53.568;10.018;2023-07-24T02:17:29;3.83;;;3.07;;
16286;SDS011;8251;53.568;10.018;2023-07-24T02:19:56;5.97;;;3.53;;
16286;SDS011;8251;53.568;10.018;2023-07-24T02:22:23;5.53;;;3.10;;
16286;SDS011;8251;53.568;10.018;2023-07-24T02:24:50;4.27;;;2.57;;
16286;SDS011;8251;53.568;10.018;2023-07-24T02:27:24;4.80;;;3.17;;
16286;SDS011;8251;53.568;10.018;2023-07-24T02:29:52;4.10;;;3.03;;
16286;SDS011;8251;53.568;10.018;2023-07-24T02:32:19;3.90;;;3.13;;
16286;SDS011;8251;53.568;10.018;2023-07-24T02:34:48;7.77;;;2.97;;
16286;SDS011;8251;53.568;10.018;2023-07-24T02:37:17;4.83;;;3.33;;
16286;SDS011;8251;53.568;10.018;2023-07-24T02:39:46;3.37;;;3.03;;
16286;SDS011;8251;53.568;10.018;2023-07-24T02:42:14;6.67;;;3.93;;
16286;SDS011;8251;53.568;10.018;2023-07-24T02:44:45;4.67;;;3.80;;
16286;SDS011;8251;53.568;10.018;2023-07-24T02:47:12;4.43;;;3.70;;
16286;SDS011;8251;53.568;10.018;2023-07-24T02:49:38;4.50;;;4.10;;
16286;SDS011;8251;53.568;10.018;2023-07-24T02:52:07;4.40;;;3.43;;
16286;SDS011;8251;53.568;10.018;2023-07-24T02:54:34;4.27;;;3.70;;
16286;SDS011;8251;53.568;10.018;2023-07-24T02:57:01;4.03;;;3.13;;
16286;SDS011;8251;53.568;10.018;2023-07-24T02:59:28;5.93;;;3.40;;
16286;SDS011;8251;53.568;10.018;2023-07-24T03:01:56;4.70;;;3.80;;
16286;SDS011;8251;53.568;10.018;2023-07-24T03:04:23;4.57;;;3.43;;
16286;SDS011;8251;53.568;10.018;2023-07-24T03:06:50;5.57;;;3.70;;
16286;SDS011;8251;53.568;10.018;2023-07-24T03:09:18;4.50;;;4.10;;
16286;SDS011;8251;53.568;10.018;2023-07-24T03:11:45;3.83;;;3.43;;
16286;SDS011;8251;53.568;10.018;2023-07-24T03:14:12;5.23;;;3.60;;
16286;SDS011;8251;53.568;10.018;2023-07-24T03:16:39;3.50;;;3.20;;
16286;SDS011;8251;53.568;10.018;2023-07-24T03:19:05;5.70;;;3.13;;
16286;SDS011;8251;53.568;10.018;2023-07-24T03:21:32;8.57;;;3.90;;
16286;SDS011;8251;53.568;10.018;2023-07-24T03:23:59;5.23;;;3.20;;
16286;SDS011;8251;53.568;10.018;2023-07-24T03:26:27;7.33;;;3.33;;
16286;SDS011;8251;53.568;10.018;2023-07-24T03:28:54;4.03;;;2.67;;
16286;SDS011;8251;53.568;10.018;2023-07-24T03:31:21;5.87;;;2.87;;
16286;SDS011;8251;53.568;10.018;2023-07-24T03:33:48;6.17;;;3.20;;
16286;SDS011;8251;53.568;10.018;2023-07-24T03:36:14;4.83;;;2.90;;
16286;SDS011;8251;53.568;10.018;2023-07-24T03:38:41;4.23;;;3.20;;
16286;SDS011;8251;53.568;10.018;2023-07-24T03:41:08;8.13;;;3.50;;
16286;SDS011;8251;53.568;10.018;2023-07-24T03:43:36;4.67;;;3.57;;
16286;SDS011;8251;53.568;10.018;2023-07-24T03:46:03;4.43;;;3.23;;
16286;SDS011;8251;53.568;10.018;2023-07-24T03:48:30;6.83;;;4.70;;
16286;SDS011;8251;53.568;10.018;2023-07-24T03:50:59;4.87;;;2.90;;
16286;SDS011;8251;53.568;10.018;2023-07-24T03:53:27;4.87;;;3.53;;
16286;SDS011;8251;53.568;10.018;2023-07-24T03:55:54;3.53;;;3.23;;
16286;SDS011;8251;53.568;10.018;2023-07-24T03:58:21;4.00;;;3.20;;
16286;SDS011;8251;53.568;10.018;2023-07-24T04:00:49;5.00;;;3.63;;
16286;SDS011;8251;53.568;10.018;2023-07-24T04:03:16;5.90;;;3.07;;
16286;SDS011;8251;53.568;10.018;2023-07-24T04:05:43;3.90;;;3.20;;
16286;SDS011;8251;53.568;10.018;2023-07-24T04:08:10;7.90;;;3.13;;
16286;SDS011;8251;53.568;10.018;2023-07-24T04:10:37;4.13;;;3.47;;
16286;SDS011;8251;53.568;10.018;2023-07-24T04:13:03;4.10;;;3.50;;
16286;SDS011;8251;53.568;10.018;2023-07-24T04:15:30;4.07;;;3.37;;
16286;SDS011;8251;53.568;10.018;2023-07-24T04:17:58;4.03;;;3.40;;
16286;SDS011;8251;53.568;10.018;2023-07-24T04:20:25;5.70;;;3.60;;
16286;SDS011;8251;53.568;10.018;2023-07-24T04:22:52;4.83;;;3.57;;
16286;SDS011;8251;53.568;10.018;2023-07-24T04:25:19;6.20;;;4.17;;
16286;SDS011;8251;53.568;10.018;2023-07-24T04:27:46;5.77;;;3.73;;
16286;SDS011;8251;53.568;10.018;2023-07-24T04:30:13;4.67;;;4.07;;
16286;SDS011;8251;53.568;10.018;2023-07-24T04:32:39;5.27;;;3.60;;
16286;SDS011;8251;53.568;10.018;2023-07-24T04:35:08;4.83;;;3.70;;
16286;SDS011;8251;53.568;10.018;2023-07-24T04:37:35;4.27;;;3.87;;
16286;SDS011;8251;53.568;10.018;2023-07-24T04:40:01;4.13;;;3.70;;
16286;SDS011;8251;53.568;10.018;2023-07-24T04:42:29;5.57;;;4.00;;
16286;SDS011;8251;53.568;10.018;2023-07-24T04:44:56;6.13;;;4.10;;
16286;SDS011;8251;53.568;10.018;2023-07-24T04:47:22;5.63;;;4.23;;
16286;SDS011;8251;53.568;10.018;2023-07-24T04:49:49;6.37;;;4.00;;
16286;SDS011;8251;53.568;10.018;2023-07-24T04:52:17;9.63;;;3.83;;
16286;SDS011;8251;53.568;10.018;2023-07-24T04:54:44;4.63;;;3.57;;
16286;SDS011;8251;53.568;10.018;2023-07-24T04:57:11;7.13;;;4.10;;
16286;SDS011;8251;53.568;10.018;2023-07-24T04:59:38;7.60;;;3.80;;
16286;SDS011;8251;53.568;10.018;2023-07-24T05:02:05;4.83;;;4.00;;
16286;SDS011;8251;53.568;10.018;2023-07-24T05:04:32;8.20;;;5.27;;
16286;SDS011;8251;53.568;10.018;2023-07-24T05:06:58;5.47;;;4.10;;
16286;SDS011;8251;53.568;10.018;2023-07-24T05:09:26;5.90;;;4.23;;
16286;SDS011;8251;53.568;10.018;2023-07-24T05:11:53;5.33;;;3.93;;
16286;SDS011;8251;53.568;10.018;2023-07-24T05:14:20;7.77;;;3.67;;
16286;SDS011;8251;53.568;10.018;2023-07-24T05:16:47;5.10;;;3.70;;
16286;SDS011;8251;53.568;10.018;2023-07-24T05:19:16;6.13;;;4.17;;
16286;SDS011;8251;53.568;10.018;2023-07-24T05:21:51;4.93;;;3.90;;
16286;SDS011;8251;53.568;10.018;2023-07-24T05:24:22;5.20;;;4.10;;
16286;SDS011;8251;53.568;10.018;2023-07-24T05:26:51;6.17;;;4.13;;
16286;SDS011;8251;53.568;10.018;2023-07-24T05:29:17;4.37;;;3.77;;
16286;SDS011;8251;53.568;10.018;2023-07-24T05:31:44;4.97;;;4.00;;
16286;SDS011;8251;53.568;10.018;2023-07-24T05:34:11;4.50;;;3.77;;
16286;SDS011;8251;53.568;10.018;2023-07-24T05:36:41;6.80;;;3.80;;
16286;SDS011;8251;53.568;10.018;2023-07-24T05:39:14;5.23;;;3.80;;
16286;SDS011;8251;53.568;10.018;2023-07-24T05:41:44;5.00;;;3.27;;
16286;SDS011;8251;53.568;10.018;2023-07-24T05:44:18;5.50;;;3.67;;
16286;SDS011;8251;53.568;10.018;2023-07-24T05:46:45;5.37;;;3.60;;
16286;SDS011;8251;53.568;10.018;2023-07-24T05:49:12;5.57;;;3.60;;
16286;SDS011;8251;53.568;10.018;2023-07-24T05:51:39;5.10;;;3.70;;
16286;SDS011;8251;53.568;10.018;2023-07-24T05:54:07;4.13;;;3.30;;
16286;SDS011;8251;53.568;10.018;2023-07-24T05:56:38;6.80;;;3.60;;
16286;SDS011;8251;53.568;10.018;2023-07-24T05:59:08;5.07;;;3.70;;
16286;SDS011;8251;53.568;10.018;2023-07-24T06:01:36;5.00;;;3.37;;
16286;SDS011;8251;53.568;10.018;2023-07-24T06:04:03;5.10;;;3.73;;
16286;SDS011;8251;53.568;10.018;2023-07-24T06:06:32;4.67;;;4.13;;
16286;SDS011;8251;53.568;10.018;2023-07-24T06:09:04;5.27;;;3.67;;
16286;SDS011;8251;53.568;10.018;2023-07-24T06:11:31;6.80;;;3.70;;
16286;SDS011;8251;53.568;10.018;2023-07-24T06:13:58;4.60;;;4.03;;
16286;SDS011;8251;53.568;10.018;2023-07-24T06:16:25;4.37;;;3.97;;
16286;SDS011;8251;53.568;10.018;2023-07-24T06:18:53;3.80;;;3.40;;
16286;SDS011;8251;53.568;10.018;2023-07-24T06:21:20;4.50;;;3.40;;
16286;SDS011;8251;53.568;10.018;2023-07-24T06:23:46;4.00;;;3.70;;
16286;SDS011;8251;53.568;10.018;2023-07-24T06:26:13;5.70;;;3.23;;
16286;SDS011;8251;53.568;10.018;2023-07-24T06:28:40;5.33;;;3.80;;
16286;SDS011;8251;53.568;10.018;2023-07-24T06:31:07;6.10;;;3.63;;
16286;SDS011;8251;53.568;10.018;2023-07-24T06:33:34;5.60;;;4.00;;
16286;SDS011;8251;53.568;10.018;2023-07-24T06:36:02;4.07;;;3.53;;
16286;SDS011;8251;53.568;10.018;2023-07-24T06:38:29;4.73;;;3.97;;
16286;SDS011;8251;53.568;10.018;2023-07-24T06:40:56;6.10;;;3.90;;
16286;SDS011;8251;53.568;10.018;2023-07-24T06:43:23;4.83;;;3.80;;
16286;SDS011;8251;53.568;10.018;2023-07-24T06:45:50;6.00;;;4.77;;
16286;SDS011;8251;53.568;10.018;2023-07-24T06:48:16;6.90;;;4.40;;
16286;SDS011;8251;53.568;10.018;2023-07-24T06:50:46;4.40;;;3.90;;
16286;SDS011;8251;53.568;10.018;2023-07-24T06:53:17;5.83;;;3.90;;
16286;SDS011;8251;53.568;10.018;2023-07-24T06:55:52;5.73;;;3.83;;
16286;SDS011;8251;53.568;10.018;2023-07-24T06:58:20;5.10;;;4.47;;
16286;SDS011;8251;53.568;10.018;2023-07-24T07:00:55;5.13;;;4.03;;
16286;SDS011;8251;53.568;10.018;2023-07-24T07:03:24;5.37;;;4.17;;
16286;SDS011;8251;53.568;10.018;2023-07-24T07:06:05;5.53;;;4.53;;
16286;SDS011;8251;53.568;10.018;2023-07-24T07:08:37;6.63;;;4.80;;
16286;SDS011;8251;53.568;10.018;2023-07-24T07:11:05;5.70;;;4.63;;
16286;SDS011;8251;53.568;10.018;2023-07-24T07:13:42;6.67;;;4.27;;
16286;SDS011;8251;53.568;10.018;2023-07-24T07:16:11;4.77;;;4.10;;
16286;SDS011;8251;53.568;10.018;2023-07-24T07:18:38;4.20;;;3.80;;
16286;SDS011;8251;53.568;10.018;2023-07-24T07:21:07;4.97;;;4.47;;
16286;SDS011;8251;53.568;10.018;2023-07-24T07:23:39;6.37;;;3.80;;
16286;SDS011;8251;53.568;10.018;2023-07-24T07:26:07;5.57;;;4.30;;
16286;SDS011;8251;53.568;10.018;2023-07-24T07:28:35;6.80;;;3.93;;
16286;SDS011;8251;53.568;10.018;2023-07-24T07:31:04;5.13;;;4.03;;
16286;SDS011;8251;53.568;10.018;2023-07-24T07:33:31;4.27;;;3.80;;
16286;SDS011;8251;53.568;10.018;2023-07-24T07:35:58;5.37;;;3.57;;
16286;SDS011;8251;53.568;10.018;2023-07-24T07:38:25;4.77;;;3.77;;
16286;SDS011;8251;53.568;10.018;2023-07-24T07:40:54;4.90;;;3.77;;
16286;SDS011;8251;53.568;10.018;2023-07-24T07:43:21;6.13;;;3.67;;
16286;SDS011;8251;53.568;10.018;2023-07-24T07:45:50;6.63;;;3.80;;
16286;SDS011;8251;53.568;10.018;2023-07-24T07:48:17;6.33;;;4.73;;
16286;SDS011;8251;53.568;10.018;2023-07-24T07:50:44;8.47;;;7.10;;
16286;SDS011;8251;53.568;10.018;2023-07-24T07:53:16;6.80;;;3.80;;
16286;SDS011;8251;53.568;10.018;2023-07-24T07:55:44;4.47;;;4.07;;
16286;SDS011;8251;53.568;10.018;2023-07-24T07:58:13;5.53;;;4.17;;
16286;SDS011;8251;53.568;10.018;2023-07-24T08:00:40;5.87;;;3.97;;
16286;SDS011;8251;53.568;10.018;2023-07-24T08:03:06;4.30;;;3.63;;
16286;SDS011;8251;53.568;10.018;2023-07-24T08:05:33;5.33;;;4.37;;
16286;SDS011;8251;53.568;10.018;2023-07-24T08:08:00;4.47;;;4.07;;
16286;SDS011;8251;53.568;10.018;2023-07-24T08:10:27;5.43;;;4.50;;
16286;SDS011;8251;53.568;10.018;2023-07-24T08:12:54;5.83;;;3.80;;
16286;SDS011;8251;53.568;10.018;2023-07-24T08:15:22;5.50;;;4.23;;
16286;SDS011;8251;53.568;10.018;2023-07-24T08:17:48;4.87;;;4.40;;
16286;SDS011;8251;53.568;10.018;2023-07-24T08:20:15;4.80;;;4.40;;
16286;SDS011;8251;53.568;10.018;2023-07-24T08:22:42;5.60;;;4.63;;
16286;SDS011;8251;53.568;10.018;2023-07-24T08:25:09;5.93;;;4.83;;
16286;SDS011;8251;53.568;10.018;2023-07-24T08:27:36;5.10;;;4.60;;
16286;SDS011;8251;53.568;10.018;2023-07-24T08:30:03;6.07;;;4.93;;
16286;SDS011;8251;53.568;10.018;2023-07-24T08:32:34;5.37;;;4.87;;
16286;SDS011;8251;53.568;10.018;2023-07-24T08:35:01;5.07;;;4.57;;
16286;SDS011;8251;53.568;10.018;2023-07-24T08:37:27;5.47;;;4.37;;
16286;SDS011;8251;53.568;10.018;2023-07-24T08:39:54;5.47;;;4.47;;
16286;SDS011;8251;53.568;10.018;2023-07-24T08:42:21;6.77;;;4.87;;
16286;SDS011;8251;53.568;10.018;2023-07-24T08:44:49;13.50;;;4.70;;
16286;SDS011;8251;53.568;10.018;2023-07-24T08:47:17;5.67;;;5.07;;
16286;SDS011;8251;53.568;10.018;2023-07-24T08:49:46;5.10;;;4.60;;
16286;SDS011;8251;53.568;10.018;2023-07-24T08:52:17;6.57;;;4.87;;
16286;SDS011;8251;53.568;10.018;2023-07-24T08:54:53;5.47;;;4.90;;
16286;SDS011;8251;53.568;10.018;2023-07-24T08:57:38;9.13;;;5.30;;
16286;SDS011;8251;53.568;10.018;2023-07-24T09:00:08;5.03;;;4.30;;
16286;SDS011;8251;53.568;10.018;2023-07-24T09:02:35;5.50;;;4.27;;
16286;SDS011;8251;53.568;10.018;2023-07-24T09:05:04;5.70;;;5.00;;
16286;SDS011;8251;53.568;10.018;2023-07-24T09:07:31;5.45;;;4.90;;
16286;SDS011;8251;53.568;10.018;2023-07-24T09:09:58;5.57;;;5.05;;
16286;SDS011;8251;53.568;10.018;2023-07-24T09:12:25;6.78;;;4.80;;
16286;SDS011;8251;53.568;10.018;2023-07-24T09:15:00;7.13;;;5.10;;
16286;SDS011;8251;53.568;10.018;2023-07-24T09:17:31;5.93;;;5.15;;
16286;SDS011;8251;53.568;10.018;2023-07-24T09:20:02;5.95;;;4.80;;
16286;SDS011;8251;53.568;10.018;2023-07-24T09:22:33;5.28;;;4.78;;
16286;SDS011;8251;53.568;10.018;2023-07-24T09:25:00;5.03;;;4.50;;
16286;SDS011;8251;53.568;10.018;2023-07-24T09:27:28;5.85;;;5.00;;
16286;SDS011;8251;53.568;10.018;2023-07-24T09:29:55;7.05;;;4.85;;
16286;SDS011;8251;53.568;10.018;2023-07-24T09:32:23;6.20;;;5.03;;
16286;SDS011;8251;53.568;10.018;2023-07-24T09:34:52;6.82;;;5.80;;
16286;SDS011;8251;53.568;10.018;2023-07-24T09:37:24;6.82;;;5.55;;
16286;SDS011;8251;53.568;10.018;2023-07-24T09:39:52;10.15;;;6.05;;
16286;SDS011;8251;53.568;10.018;2023-07-24T09:42:26;6.03;;;4.93;;
16286;SDS011;8251;53.568;10.018;2023-07-24T09:44:54;5.80;;;5.18;;
16286;SDS011;8251;53.568;10.018;2023-07-24T09:47:23;5.88;;;5.28;;
16286;SDS011;8251;53.568;10.018;2023-07-24T09:49:56;8.55;;;4.95;;
16286;SDS011;8251;53.568;10.018;2023-07-24T09:52:24;6.28;;;4.97;;
16286;SDS011;8251;53.568;10.018;2023-07-24T09:54:56;5.57;;;4.78;;
16286;SDS011;8251;53.568;10.018;2023-07-24T09:57:31;6.18;;;4.70;;
16286;SDS011;8251;53.568;10.018;2023-07-24T09:59:58;4.70;;;4.20;;
16286;SDS011;8251;53.568;10.018;2023-07-24T10:02:27;5.00;;;4.50;;
16286;SDS011;8251;53.568;10.018;2023-07-24T10:04:55;6.13;;;4.63;;
16286;SDS011;8251;53.568;10.018;2023-07-24T10:07:22;9.32;;;4.50;;
16286;SDS011;8251;53.568;10.018;2023-07-24T10:09:50;6.13;;;4.90;;
16286;SDS011;8251;53.568;10.018;2023-07-24T10:12:18;5.47;;;4.40;;
16286;SDS011;8251;53.568;10.018;2023-07-24T10:14:46;7.00;;;4.68;;
16286;SDS011;8251;53.568;10.018;2023-07-24T10:17:14;5.88;;;4.95;;
16286;SDS011;8251;53.568;10.018;2023-07-24T10:19:50;6.20;;;4.90;;
16286;SDS011;8251;53.568;10.018;2023-07-24T10:22:17;5.18;;;4.40;;
16286;SDS011;8251;53.568;10.018;2023-07-24T10:24:44;5.45;;;4.38;;
16286;SDS011;8251;53.568;10.018;2023-07-24T10:27:12;5.32;;;4.45;;
16286;SDS011;8251;53.568;10.018;2023-07-24T10:29:39;5.95;;;4.88;;
16286;SDS011;8251;53.568;10.018;2023-07-24T10:32:25;5.05;;;3.92;;
16286;SDS011;8251;53.568;10.018;2023-07-24T10:34:58;6.45;;;5.22;;
16286;SDS011;8251;53.568;10.018;2023-07-24T10:37:38;5.20;;;4.43;;
16286;SDS011;8251;53.568;10.018;2023-07-24T10:40:18;6.85;;;4.85;;
16286;SDS011;8251;53.568;10.018;2023-07-24T10:42:47;5.35;;;3.90;;
16286;SDS011;8251;53.568;10.018;2023-07-24T10:45:25;6.53;;;4.40;;
16286;SDS011;8251;53.568;10.018;2023-07-24T10:47:52;5.65;;;4.70;;
16286;SDS011;8251;53.568;10.018;2023-07-24T10:50:19;5.03;;;4.20;;
16286;SDS011;8251;53.568;10.018;2023-07-24T10:52:46;6.25;;;4.35;;
16286;SDS011;8251;53.568;10.018;2023-07-24T10:55:13;6.05;;;4.90;;
16286;SDS011;8251;53.568;10.018;2023-07-24T10:57:40;4.53;;;4.05;;
16286;SDS011;8251;53.568;10.018;2023-07-24T11:00:09;4.10;;;3.72;;
16286;SDS011;8251;53.568;10.018;2023-07-24T11:02:37;7.65;;;4.00;;
16286;SDS011;8251;53.568;10.018;2023-07-24T11:05:04;4.88;;;4.35;;
16286;SDS011;8251;53.568;10.018;2023-07-24T11:07:34;5.85;;;4.20;;
16286;SDS011;8251;53.568;10.018;2023-07-24T11:10:14;4.38;;;3.97;;
16286;SDS011;8251;53.568;10.018;2023-07-24T11:12:46;5.90;;;4.18;;
16286;SDS011;8251;53.568;10.018;2023-07-24T11:15:23;4.63;;;4.00;;
16286;SDS011;8251;53.568;10.018;2023-07-24T11:17:51;4.50;;;3.65;;
16286;SDS011;8251;53.568;10.018;2023-07-24T11:20:18;4.45;;;3.70;;
16286;SDS011;8251;53.568;10.018;2023-07-24T11:22:45;4.07;;;3.53;;
16286;SDS011;8251;53.568;10.018;2023-07-24T11:25:12;5.80;;;3.97;;
16286;SDS011;8251;53.568;10.018;2023-07-24T11:27:39;4.65;;;3.60;;
16286;SDS011;8251;53.568;10.018;2023-07-24T11:30:08;5.45;;;3.80;;
16286;SDS011;8251;53.568;10.018;2023-07-24T11:32:37;8.85;;;5.18;;
16286;SDS011;8251;53.568;10.018;2023-07-24T11:35:05;6.05;;;4.07;;
16286;SDS011;8251;53.568;10.018;2023-07-24T11:37:33;4.88;;;3.75;;
16286;SDS011;8251;53.568;10.018;2023-07-24T11:40:02;4.85;;;3.80;;
16286;SDS011;8251;53.568;10.018;2023-07-24T11:42:36;6.22;;;3.63;;
16286;SDS011;8251;53.568;10.018;2023-07-24T11:45:04;4.78;;;4.00;;
16286;SDS011;8251;53.568;10.018;2023-07-24T11:47:41;4.85;;;3.97;;
16286;SDS011;8251;53.568;10.018;2023-07-24T11:50:09;5.28;;;4.13;;
16286;SDS011;8251;53.568;10.018;2023-07-24T11:52:39;4.40;;;4.00;;
16286;SDS011;8251;53.568;10.018;2023-07-24T11:55:09;4.38;;;3.97;;
16286;SDS011;8251;53.568;10.018;2023-07-24T11:57:35;3.63;;;3.33;;
16286;SDS011;8251;53.568;10.018;2023-07-24T12:00:03;4.70;;;3.63;;
16286;SDS011;8251;53.568;10.018;2023-07-24T12:02:34;6.00;;;4.05;;
16286;SDS011;8251;53.568;10.018;2023-07-24T12:05:04;4.90;;;3.80;;
16286;SDS011;8251;53.568;10.018;2023-07-24T12:07:32;4.53;;;3.55;;
16286;SDS011;8251;53.568;10.018;2023-07-24T12:10:00;4.22;;;3.80;;
16286;SDS011;8251;53.568;10.018;2023-07-24T12:12:36;3.78;;;3.47;;
16286;SDS011;8251;53.568;10.018;2023-07-24T12:15:04;5.45;;;4.95;;
16286;SDS011;8251;53.568;10.018;2023-07-24T12:17:32;5.40;;;3.78;;
16286;SDS011;8251;53.568;10.018;2023-07-24T12:19:59;4.97;;;4.38;;
16286;SDS011;8251;53.568;10.018;2023-07-24T12:22:27;5.82;;;5.03;;
16286;SDS011;8251;53.568;10.018;2023-07-24T12:24:54;4.50;;;3.67;;
16286;SDS011;8251;53.568;10.018;2023-07-24T12:27:20;5.05;;;3.55;;
16286;SDS011;8251;53.568;10.018;2023-07-24T12:29:47;4.10;;;3.65;;
16286;SDS011;8251;53.568;10.018;2023-07-24T12:32:14;6.80;;;3.75;;
16286;SDS011;8251;53.568;10.018;2023-07-24T12:34:41;5.38;;;3.70;;
16286;SDS011;8251;53.568;10.018;2023-07-24T12:37:08;4.63;;;3.40;;
16286;SDS011;8251;53.568;10.018;2023-07-24T12:39:36;5.78;;;3.20;;
16286;SDS011;8251;53.568;10.018;2023-07-24T12:42:03;3.65;;;3.00;;
16286;SDS011;8251;53.568;10.018;2023-07-24T12:44:31;5.43;;;3.20;;
16286;SDS011;8251;53.568;10.018;2023-07-24T12:46:58;2.70;;;2.50;;
16286;SDS011;8251;53.568;10.018;2023-07-24T12:49:24;3.13;;;2.83;;
16286;SDS011;8251;53.568;10.018;2023-07-24T12:51:51;3.20;;;2.90;;
16286;SDS011;8251;53.568;10.018;2023-07-24T12:54:18;3.53;;;2.90;;
16286;SDS011;8251;53.568;10.018;2023-07-24T12:56:49;12.30;;;3.67;;
16286;SDS011;8251;53.568;10.018;2023-07-24T12:59:16;3.28;;;2.97;;
16286;SDS011;8251;53.568;10.018;2023-07-24T13:01:43;3.03;;;2.80;;
16286;SDS011;8251;53.568;10.018;2023-07-24T13:04:10;4.55;;;4.15;;
16286;SDS011;8251;53.568;10.018;2023-07-24T13:06:37;5.78;;;5.18;;
16286;SDS011;8251;53.568;10.018;2023-07-24T13:09:04;3.63;;;3.25;;
16286;SDS011;8251;53.568;10.018;2023-07-24T13:11:31;3.70;;;2.92;;
16286;SDS011;8251;53.568;10.018;2023-07-24T13:13:59;4.75;;;3.60;;
16286;SDS011;8251;53.568;10.018;2023-07-24T13:16:26;2.88;;;2.67;;
16286;SDS011;8251;53.568;10.018;2023-07-24T13:18:53;5.25;;;2.90;;
16286;SDS011;8251;53.568;10.018;2023-07-24T13:21:20;3.67;;;2.53;;
16286;SDS011;8251;53.568;10.018;2023-07-24T13:23:48;6.70;;;2.67;;
16286;SDS011;8251;53.568;10.018;2023-07-24T13:26:15;2.53;;;2.33;;
16286;SDS011;8251;53.568;10.018;2023-07-24T13:28:42;3.50;;;3.20;;
16286;SDS011;8251;53.568;10.018;2023-07-24T13:31:14;2.70;;;2.50;;
16286;SDS011;8251;53.568;10.018;2023-07-24T13:33:42;3.45;;;2.40;;
16286;SDS011;8251;53.568;10.018;2023-07-24T13:36:09;3.20;;;2.70;;
16286;SDS011;8251;53.568;10.018;2023-07-24T13:38:36;2.55;;;2.35;;
16286;SDS011;8251;53.568;10.018;2023-07-24T13:41:03;5.60;;;2.80;;
16286;SDS011;8251;53.568;10.018;2023-07-24T13:43:30;2.65;;;2.45;;
16286;SDS011;8251;53.568;10.018;2023-07-24T13:45:57;3.53;;;2.35;;
16286;SDS011;8251;53.568;10.018;2023-07-24T13:48:27;2.67;;;2.47;;
16286;SDS011;8251;53.568;10.018;2023-07-24T13:50:53;3.38;;;3.08;;
16286;SDS011;8251;53.568;10.018;2023-07-24T13:53:20;3.00;;;2.70;;
16286;SDS011;8251;53.568;10.018;2023-07-24T13:55:48;3.70;;;2.83;;
16286;SDS011;8251;53.568;10.018;2023-07-24T13:58:14;5.72;;;2.80;;
16286;SDS011;8251;53.568;10.018;2023-07-24T14:00:41;3.78;;;2.55;;
16286;SDS011;8251;53.568;10.018;2023-07-24T14:03:08;6.13;;;2.53;;
16286;SDS011;8251;53.568;10.018;2023-07-24T14:05:36;4.00;;;2.78;;
16286;SDS011;8251;53.568;10.018;2023-07-24T14:08:03;4.28;;;3.08;;
16286;SDS011;8251;53.568;10.018;2023-07-24T14:10:31;3.33;;;3.03;;
16286;SDS011;8251;53.568;10.018;2023-07-24T14:12:57;5.40;;;3.00;;
16286;SDS011;8251;53.568;10.018;2023-07-24T14:15:24;3.28;;;2.85;;
16286;SDS011;8251;53.568;10.018;2023-07-24T14:17:51;2.78;;;2.58;;
16286;SDS011;8251;53.568;10.018;2023-07-24T14:20:19;3.03;;;2.80;;
16286;SDS011;8251;53.568;10.018;2023-07-24T14:22:47;9.25;;;2.85;;
16286;SDS011;8251;53.568;10.018;2023-07-24T14:25:14;5.63;;;3.50;;
16286;SDS011;8251;53.568;10.018;2023-07-24T14:27:41;3.25;;;2.95;;
16286;SDS011;8251;53.568;10.018;2023-07-24T14:30:08;3.67;;;3.03;;
16286;SDS011;8251;53.568;10.018;2023-07-24T14:32:35;3.38;;;2.78;;
16286;SDS011;8251;53.568;10.018;2023-07-24T14:35:03;4.47;;;2.90;;
16286;SDS011;8251;53.568;10.018;2023-07-24T14:37:31;5.25;;;3.03;;
16286;SDS011;8251;53.568;10.018;2023-07-24T14:39:59;6.07;;;3.03;;
16286;SDS011;8251;53.568;10.018;2023-07-24T14:42:26;2.80;;;2.50;;
16286;SDS011;8251;53.568;10.018;2023-07-24T14:44:53;3.42;;;2.78;;
16286;SDS011;8251;53.568;10.018;2023-07-24T14:47:19;3.40;;;3.10;;
16286;SDS011;8251;53.568;10.018;2023-07-24T14:49:46;3.40;;;2.83;;
16286;SDS011;8251;53.568;10.018;2023-07-24T14:52:14;3.63;;;3.15;;
16286;SDS011;8251;53.568;10.018;2023-07-24T14:54:41;5.75;;;3.88;;
16286;SDS011;8251;53.568;10.018;2023-07-24T14:57:09;4.40;;;3.17;;